| time (UTC) | temp C | wind direction | speed KPH | gust KPH | rain 1hr cm | rain 24hr cm | rain mn cm | humidity % | barometer mb |
| 20260906113101 | 23 | 0 | 0.0 | 1.6 | 0.00 | 0.00 | 0.00 | 95 | 1011.3 |
| 20260906111556 | 22 | 0 | 0.0 | 0.0 | 0.00 | 0.00 | 0.00 | 95 | 1011.0 |
| 20260906104559 | 22 | 0 | 0.0 | 1.6 | 0.00 | 0.00 | 0.00 | 95 | 1010.7 |
| 20260906103053 | 22 | 0 | 0.0 | 0.0 | 0.00 | 0.00 | 0.00 | 94 | 1010.6 |
| 20260906101555 | 22 | 0 | 0.0 | 0.0 | 0.00 | 0.00 | 0.00 | 94 | 1010.7 |
| 20260906100111 | 22 | 0 | 0.0 | 0.0 | 0.00 | 0.00 | 0.00 | 94 | 1010.6 |
| 20260906094609 | 22 | 0 | 0.0 | 0.0 | 0.00 | 0.00 | 0.00 | 94 | 1010.5 |
| 20260906093104 | 22 | 0 | 0.0 | 0.0 | 0.00 | 0.00 | 0.00 | 94 | 1010.2 |
| 20260906091602 | 23 | 0 | 0.0 | 0.0 | 0.00 | 0.00 | 0.00 | 94 | 1010.0 |
| 20260906090113 | 23 | 0 | 0.0 | 0.0 | 0.00 | 0.00 | 0.00 | 94 | 1010.1 |
| 20260906084558 | 23 | 0 | 0.0 | 0.0 | 0.00 | 0.00 | 0.00 | 94 | 1010.1 |
| 20260906083100 | 23 | 0 | 0.0 | 0.0 | 0.00 | 0.00 | 0.00 | 93 | 1010.1 |
| 20260906081552 | 23 | 0 | 0.0 | 0.0 | 0.00 | 0.00 | 0.00 | 93 | 1010.3 |
| 20260906074602 | 23 | 0 | 0.0 | 0.0 | 0.00 | 0.00 | 0.00 | 93 | 1010.3 |
| 20260906073054 | 23 | 0 | 0.0 | 0.0 | 0.00 | 0.00 | 0.00 | 93 | 1010.4 |
| 20260906071555 | 24 | 0 | 0.0 | 0.0 | 0.00 | 0.00 | 0.00 | 93 | 1010.5 |
| 20260906070059 | 24 | 0 | 0.0 | 0.0 | 0.00 | 0.00 | 0.00 | 93 | 1010.7 |
| 20260906064553 | 24 | 0 | 0.0 | 1.6 | 0.00 | 0.00 | 0.00 | 93 | 1010.8 |
| 20260906063102 | 25 | 0 | 0.0 | 0.0 | 0.00 | 0.00 | 0.00 | 92 | 1010.8 |
| 20260906061607 | 25 | 0 | 0.0 | 1.6 | 0.00 | 0.00 | 0.00 | 92 | 1010.8 |
| 20260906060105 | 25 | 11 | 0.0 | 4.8 | 0.00 | 0.00 | 0.00 | 92 | 1010.9 |
| 20260906054555 | 25 | 55 | 1.6 | 4.8 | 0.00 | 0.00 | 0.00 | 92 | 1011.1 |
| 20260906053058 | 25 | 0 | 0.0 | 1.6 | 0.00 | 0.00 | 0.00 | 93 | 1011.0 |
| 20260906051604 | 26 | 311 | 0.0 | 3.2 | 0.00 | 0.00 | 0.00 | 93 | 1011.2 |
| 20260906050105 | 26 | 46 | 0.0 | 4.8 | 0.00 | 0.00 | 0.00 | 93 | 1011.2 |
| 20260906044559 | 27 | 0 | 0.0 | 1.6 | 0.00 | 0.00 | 0.00 | 93 | 1011.1 |
| 20260906043057 | 27 | 265 | 0.0 | 1.6 | 0.00 | 0.00 | 0.00 | 93 | 1011.2 |
| 20260906041600 | 27 | 0 | 0.0 | 3.2 | 0.00 | 0.00 | 0.00 | 94 | 1011.3 |
| 20260906040104 | 27 | 262 | 0.0 | 3.2 | 0.00 | 0.00 | 0.00 | 94 | 1011.2 |
| 20260906034606 | 27 | 257 | 0.0 | 4.8 | 0.00 | 0.00 | 0.00 | 94 | 1011.3 |
| 20260906033108 | 27 | 0 | 0.0 | 3.2 | 0.00 | 0.00 | 0.00 | 93 | 1011.6 |
| 20260906031602 | 27 | 0 | 0.0 | 3.2 | 0.00 | 0.00 | 0.00 | 93 | 1011.5 |
| 20260906024608 | 27 | 348 | 0.0 | 3.2 | 0.00 | 0.00 | 0.00 | 93 | 1011.9 |
| 20260906023102 | 27 | 348 | 1.6 | 4.8 | 0.00 | 0.00 | 0.00 | 93 | 1011.4 |
| 20260906021603 | 27 | 355 | 0.0 | 6.4 | 0.00 | 0.00 | 0.00 | 93 | 1010.8 |
| 20260906020108 | 27 | 347 | 1.6 | 11.3 | 0.00 | 0.00 | 0.00 | 93 | 1010.7 |
| 20260906014611 | 27 | 285 | 1.6 | 8.0 | 0.00 | 0.00 | 0.00 | 93 | 1009.3 |
| 20260906013103 | 27 | 0 | 0.0 | 4.8 | 0.00 | 0.00 | 0.00 | 93 | 1010.1 |
| 20260906011615 | 27 | 225 | 1.6 | 6.4 | 0.00 | 0.00 | 0.00 | 93 | 1010.5 |
| 20260906010108 | 27 | 261 | 0.0 | 3.2 | 0.00 | 0.00 | 0.00 | 92 | 1010.9 |
| 20260906004601 | 27 | 240 | 0.0 | 1.6 | 0.00 | 0.00 | 0.00 | 91 | 1011.3 |
| 20260906003111 | 27 | 0 | 0.0 | 3.2 | 0.00 | 0.00 | 0.00 | 91 | 1011.4 |
| 20260906001603 | 28 | 0 | 0.0 | 4.8 | 0.00 | 0.00 | 0.00 | 91 | 1011.4 |
| 20260906000059 | 28 | 245 | 0.0 | 6.4 | 0.00 | 0.00 | 0.00 | 91 | 1011.5 |
| 20260905234555 | 28 | 0 | 0.0 | 8.0 | 0.00 | 0.00 | 0.00 | 91 | 1011.4 |
| 20260905233132 | 28 | 307 | 1.6 | 11.3 | 0.00 | 0.00 | 0.00 | 90 | 1011.5 |
| 20260905231602 | 28 | 0 | 3.2 | 11.3 | 0.00 | 0.00 | 0.00 | 89 | 1011.4 |
| 20260905224611 | 29 | 198 | 4.8 | 14.5 | 0.00 | 0.00 | 0.00 | 88 | 1011.1 |
| 20260905223107 | 30 | 281 | 4.8 | 17.7 | 0.00 | 0.00 | 0.00 | 87 | 1011.0 |
| 20260905221604 | 30 | 259 | 4.8 | 16.1 | 0.00 | 0.00 | 0.00 | 86 | 1010.8 |
| 20260905220057 | 30 | 209 | 8.0 | 19.3 | 0.00 | 0.00 | 0.00 | 85 | 1010.8 |
| 20260905214605 | 30 | 246 | 4.8 | 14.5 | 0.00 | 0.00 | 0.00 | 85 | 1010.8 |
| 20260905213101 | 31 | 207 | 6.4 | 14.5 | 0.00 | 0.00 | 0.00 | 84 | 1010.8 |
| 20260905211604 | 30 | 234 | 4.8 | 14.5 | 0.00 | 0.00 | 0.00 | 84 | 1010.7 |
| 20260905204559 | 31 | 262 | 8.0 | 16.1 | 0.00 | 0.00 | 0.00 | 84 | 1010.5 |
| 20260905203106 | 31 | 227 | 8.0 | 24.1 | 0.00 | 0.00 | 0.00 | 83 | 1010.1 |
| 20260905201613 | 31 | 244 | 8.0 | 20.9 | 0.00 | 0.00 | 0.00 | 83 | 1010.0 |
| 20260905200104 | 31 | 229 | 8.0 | 16.1 | 0.00 | 0.00 | 0.00 | 82 | 1010.1 |
| 20260905194605 | 31 | 282 | 4.8 | 14.5 | 0.00 | 0.00 | 0.00 | 82 | 1010.3 |
| 20260905193052 | 31 | 232 | 4.8 | 14.5 | 0.00 | 0.00 | 0.00 | 84 | 1010.8 |
| 20260905191605 | 31 | 207 | 4.8 | 16.1 | 0.00 | 0.00 | 0.00 | 84 | 1011.1 |
| 20260905190120 | 31 | 250 | 8.0 | 17.7 | 0.00 | 0.00 | 0.00 | 83 | 1011.5 |
| 20260905184620 | 31 | 236 | 6.4 | 17.7 | 0.00 | 0.00 | 0.00 | 84 | 1011.7 |
| 20260905183054 | 31 | 249 | 6.4 | 19.3 | 0.00 | 0.00 | 0.00 | 84 | 1011.8 |
| 20260905181606 | 31 | 231 | 8.0 | 19.3 | 0.00 | 0.00 | 0.00 | 83 | 1011.9 |
| 20260905174558 | 31 | 279 | 6.4 | 16.1 | 0.00 | 0.00 | 0.00 | 83 | 1012.6 |
| 20260905173109 | 31 | 240 | 8.0 | 17.7 | 0.00 | 0.00 | 0.00 | 83 | 1012.8 |
| 20260905171602 | 31 | 171 | 6.4 | 12.9 | 0.00 | 0.00 | 0.00 | 83 | 1012.8 |
| 20260905170113 | 31 | 227 | 8.0 | 16.1 | 0.00 | 0.00 | 0.00 | 84 | 1013.1 |
| 20260905164602 | 31 | 190 | 6.4 | 12.9 | 0.00 | 0.00 | 0.00 | 84 | 1013.2 |
| 20260905163105 | 31 | 263 | 4.8 | 12.9 | 0.00 | 0.00 | 0.00 | 85 | 1013.4 |
| 20260905161600 | 31 | 229 | 4.8 | 12.9 | 0.00 | 0.00 | 0.00 | 84 | 1013.7 |
| 20260905160058 | 31 | 267 | 6.4 | 14.5 | 0.00 | 0.00 | 0.00 | 85 | 1013.9 |
| 20260905154606 | 30 | 244 | 3.2 | 11.3 | 0.00 | 0.00 | 0.00 | 84 | 1013.9 |
| 20260905153100 | 30 | 283 | 1.6 | 9.7 | 0.00 | 0.00 | 0.00 | 87 | 1014.0 |
| 20260905151600 | 30 | 267 | 3.2 | 11.3 | 0.00 | 0.00 | 0.00 | 88 | 1014.0 |
| 20260905150105 | 29 | 238 | 1.6 | 8.0 | 0.00 | 0.00 | 0.00 | 89 | 1014.2 |
| 20260905144602 | 28 | 259 | 4.8 | 11.3 | 0.00 | 0.00 | 0.00 | 88 | 1014.2 |
| 20260905143101 | 28 | 258 | 1.6 | 4.8 | 0.00 | 0.00 | 0.00 | 92 | 1014.3 |
| 20260905141623 | 28 | 0 | 0.0 | 4.8 | 0.00 | 0.00 | 0.00 | 93 | 1014.3 |
| 20260905140107 | 27 | 0 | 0.0 | 3.2 | 0.00 | 0.00 | 0.00 | 93 | 1014.3 |
| 20260905134601 | 27 | 0 | 0.0 | 4.8 | 0.00 | 0.00 | 0.00 | 94 | 1014.4 |
| 20260905133059 | 27 | 0 | 0.0 | 6.4 | 0.00 | 0.00 | 0.00 | 95 | 1014.3 |
| 20260905131617 | 27 | 0 | 0.0 | 6.4 | 0.00 | 0.00 | 0.00 | 95 | 1014.4 |
| 20260905130100 | 27 | 284 | 0.0 | 4.8 | 0.00 | 0.00 | 0.00 | 96 | 1014.3 |
| 20260905124601 | 26 | 0 | 0.0 | 3.2 | 0.00 | 0.00 | 0.00 | 96 | 1014.4 |
| 20260905123109 | 26 | 85 | 0.0 | 3.2 | 0.00 | 0.00 | 0.00 | 96 | 1014.3 |
| 20260905121603 | 25 | 0 | 0.0 | 3.2 | 0.00 | 0.00 | 0.00 | 96 | 1014.3 |
| 20260905114606 | 24 | 0 | 0.0 | 0.0 | 0.00 | 0.00 | 0.00 | 95 | 1014.1 |